Weather History for Alva, OK

Change the Weather History Date:

Wednesday, November 27, 2013

  Actual Average Record
Temperature  
Mean Temperature 28 °F -  
Max Temperature 42 °F 51 °F 74 °F (1949)
Min Temperature 14 °F 30 °F 13 °F (1975)
Degree Days  
Heating Degree Days 37    
Moisture  
Dew Point 15 °F    
Average Humidity 59    
Maximum Humidity 86    
Minimum Humidity 31    
Precipitation  
Precipitation 0.00 in - - ()
Sea Level Pressure  
Sea Level Pressure 30.34 in    
Wind  
Wind Speed 8 mph (SSW)    
Max Wind Speed 16 mph    
Max Gust Speed 20 mph    
Visibility 10 miles    
Events      
Averages and records for this station are not official NWS values.
T = Trace of Precipitation, MM = Missing Value Source: NWS Daily Summary

Daily Weather History Graph

Daily Weather History Graph

Search for Another Location

Airport:

Trip Planner

Search our weather history database for the weather conditions in past years. The results will help you decide how hot, cold, wet, or windy it might be!

Date:

Astronomy

Nov. 27, 2013 Rise Set
Actual Time 7:25 AM CST 5:19 PM CST
Civil Twilight 6:56 AM CST 5:47 PM CST
Nautical Twilight 6:25 AM CST 6:19 PM CST
Astronomical Twilight 5:53 AM CST 6:50 PM CST
Moon 1:37 AM CST (11/27) 1:50 PM CST (11/27)
Length of Visible Light 10h 50m
Length of Day
9h 54m
Waning Crescent, 31% of the Moon is Illuminated
Nov 27
Waning Crescent
Dec 2
New
Dec 9
First Quarter
Dec 17
Full
Dec 25
Last Quarter

Hourly Weather History & Observations

Time (CST) Temp. Windchill Dew Point Humidity Pressure Visibility Wind Dir Wind Speed Gust Speed Precip Events Conditions
12:10 AM 19.4 °F 10.4 °F 15.8 °F 86% 30.46 in 10.0 mi NNW 6.9 mph - N/A   Clear
12:30 AM 21.2 °F 12.6 °F 15.8 °F 80% 30.45 in 10.0 mi NNW 6.9 mph - N/A   Clear
12:50 AM 21.2 °F 12.6 °F 15.8 °F 80% 30.45 in 10.0 mi NNW 6.9 mph - N/A   Clear
1:10 AM 23.0 °F 13.1 °F 15.8 °F 74% 30.45 in 10.0 mi North 9.2 mph - N/A   Clear
1:30 AM 23.0 °F 13.1 °F 14.0 °F 68% 30.45 in 10.0 mi North 9.2 mph - N/A   Clear
1:50 AM 21.2 °F 10.9 °F 14.0 °F 74% 30.44 in 10.0 mi NNE 9.2 mph - N/A   Clear
2:10 AM 21.2 °F 11.7 °F 14.0 °F 74% 30.44 in 10.0 mi NE 8.1 mph - N/A   Clear
2:30 AM 19.4 °F 9.5 °F 14.0 °F 80% 30.44 in 10.0 mi NE 8.1 mph - N/A   Clear
2:50 AM 19.4 °F 12.8 °F 14.0 °F 80% 30.45 in 10.0 mi NW 4.6 mph - N/A   Clear
3:10 AM 15.8 °F 7.2 °F 10.4 °F 79% 30.45 in 10.0 mi WNW 5.8 mph - N/A   Clear
3:30 AM 15.8 °F 8.6 °F 10.4 °F 79% 30.45 in 10.0 mi NW 4.6 mph - N/A   Clear
3:50 AM 15.8 °F 10.2 °F 10.4 °F 79% 30.45 in 10.0 mi West 3.5 mph - N/A   Clear
4:10 AM 15.8 °F 8.6 °F 10.4 °F 79% 30.45 in 10.0 mi West 4.6 mph - N/A   Clear
4:30 AM 15.8 °F 7.2 °F 10.4 °F 79% 30.45 in 10.0 mi NW 5.8 mph - N/A   Clear
4:50 AM 15.8 °F 7.2 °F 10.4 °F 79% 30.45 in 10.0 mi WNW 5.8 mph - N/A   Clear
5:10 AM 15.8 °F 7.2 °F 10.4 °F 79% 30.45 in 10.0 mi WNW 5.8 mph - N/A   Clear
5:30 AM 15.8 °F 7.2 °F 10.4 °F 79% 30.45 in 10.0 mi NW 5.8 mph - N/A   Clear
5:50 AM 15.8 °F 8.6 °F 8.6 °F 73% 30.45 in 10.0 mi NW 4.6 mph - N/A   Clear
6:10 AM 15.8 °F 7.2 °F 8.6 °F 73% 30.45 in 10.0 mi WNW 5.8 mph - N/A   Clear
6:30 AM 14.0 °F 6.5 °F 8.6 °F 79% 30.45 in 10.0 mi WNW 4.6 mph - N/A   Clear
6:50 AM 14.0 °F 6.5 °F 8.6 °F 79% 30.45 in 10.0 mi West 4.6 mph - N/A   Clear
7:10 AM 14.0 °F 8.2 °F 8.6 °F 79% 30.45 in 9.0 mi West 3.5 mph - N/A   Clear
7:30 AM 14.0 °F 6.5 °F 8.6 °F 79% 30.45 in 10.0 mi West 4.6 mph - N/A   Clear
7:50 AM 14.0 °F 8.2 °F 8.6 °F 79% 30.45 in 10.0 mi West 3.5 mph - N/A   Clear
8:10 AM 15.8 °F 7.2 °F 10.4 °F 79% 30.45 in 10.0 mi WSW 5.8 mph - N/A   Clear
8:30 AM 19.4 °F 14.3 °F 12.2 °F 74% 30.45 in 10.0 mi SW 3.5 mph - N/A   Clear
8:50 AM 23.0 °F - 14.0 °F 68% 30.44 in 10.0 mi Calm Calm - N/A   Clear
9:10 AM 24.8 °F 20.5 °F 12.2 °F 59% 30.44 in 10.0 mi SSW 3.5 mph - N/A   Clear
9:30 AM 26.6 °F 19.1 °F 10.4 °F 51% 30.45 in 10.0 mi South 6.9 mph - N/A   Clear
9:50 AM 28.4 °F 19.7 °F 8.6 °F 43% 30.45 in 10.0 mi South 9.2 mph - N/A   Clear
10:10 AM 28.4 °F 21.2 °F 10.4 °F 47% 30.44 in 10.0 mi South 6.9 mph - N/A   Clear
10:30 AM 30.2 °F 23.4 °F 8.6 °F 40% 30.44 in 10.0 mi South 6.9 mph - N/A   Clear
10:50 AM 32.0 °F 25.6 °F 8.6 °F 38% 30.42 in 10.0 mi South 6.9 mph - N/A   Clear
11:10 AM 32.0 °F 24.8 °F 8.6 °F 38% 30.41 in 10.0 mi SSE 8.1 mph - N/A   Clear
11:30 AM 32.0 °F 25.6 °F 10.4 °F 41% 30.39 in 10.0 mi South 6.9 mph - N/A   Clear
11:50 AM 33.8 °F 26.4 °F 10.4 °F 38% 30.38 in 10.0 mi South 9.2 mph - N/A   Clear
12:10 PM 35.6 °F 28.0 °F 10.4 °F 35% 30.36 in 10.0 mi SSE 10.4 mph - N/A   Clear
12:30 PM 35.6 °F 29.9 °F 10.4 °F 35% 30.35 in 10.0 mi SSE 6.9 mph - N/A   Clear
12:50 PM 37.4 °F 30.3 °F 10.4 °F 33% 30.34 in 10.0 mi South 10.4 mph - N/A   Clear
1:10 PM 39.2 °F 31.6 °F 10.4 °F 31% 30.33 in 10.0 mi South 12.7 mph - N/A   Clear
1:30 PM 39.2 °F 31.2 °F 12.2 °F 33% 30.31 in 10.0 mi South 13.8 mph - N/A   Clear
1:50 PM 39.2 °F 31.2 °F 14.0 °F 36% 30.30 in 10.0 mi South 13.8 mph - N/A   Clear
2:10 PM 41.0 °F 33.9 °F 14.0 °F 33% 30.29 in 10.0 mi South 12.7 mph - N/A   Clear
2:30 PM 41.0 °F 33.9 °F 14.0 °F 33% 30.28 in 10.0 mi South 12.7 mph - N/A   Clear
2:50 PM 41.0 °F 33.9 °F 15.8 °F 36% 30.27 in 10.0 mi South 12.7 mph - N/A   Clear
3:10 PM 42.8 °F 37.0 °F 14.0 °F 31% 30.26 in 10.0 mi South 10.4 mph 19.6 mph N/A   Clear
3:30 PM 42.8 °F 36.2 °F 15.8 °F 34% 30.25 in 10.0 mi SSE 12.7 mph - N/A   Clear
3:50 PM 42.8 °F 35.4 °F 15.8 °F 34% 30.25 in 10.0 mi SE 15.0 mph 18.4 mph N/A   Clear
4:10 PM 41.0 °F 32.8 °F 15.8 °F 36% 30.23 in 10.0 mi SSE 16.1 mph - N/A   Clear
4:30 PM 41.0 °F 32.8 °F 15.8 °F 36% 30.23 in 10.0 mi SSE 16.1 mph - N/A   Clear
4:50 PM 39.2 °F 30.8 °F 17.6 °F 42% 30.22 in 10.0 mi SSE 15.0 mph - N/A   Clear
5:10 PM 37.4 °F 28.9 °F 17.6 °F 45% 30.22 in 10.0 mi SSE 13.8 mph - N/A   Clear
5:30 PM 35.6 °F 27.1 °F 17.6 °F 48% 30.21 in 10.0 mi South 12.7 mph - N/A   Clear
5:50 PM 33.8 °F 25.3 °F 17.6 °F 52% 30.21 in 10.0 mi South 11.5 mph - N/A   Clear
6:10 PM 32.0 °F 23.6 °F 17.6 °F 55% 30.21 in 10.0 mi South 10.4 mph - N/A   Clear
6:30 PM 32.0 °F 23.6 °F 17.6 °F 55% 30.21 in 10.0 mi South 10.4 mph - N/A   Clear
6:50 PM 32.0 °F 23.0 °F 17.6 °F 55% 30.20 in 10.0 mi South 11.5 mph - N/A   Clear
7:10 PM 32.0 °F 22.5 °F 19.4 °F 60% 30.20 in 10.0 mi South 12.7 mph - N/A   Clear
7:30 PM 32.0 °F 22.1 °F 19.4 °F 60% 30.20 in 10.0 mi South 13.8 mph - N/A   Clear
7:50 PM 33.8 °F 24.8 °F 19.4 °F 56% 30.20 in 10.0 mi South 12.7 mph - N/A   Clear
8:10 PM 32.0 °F 21.6 °F 21.2 °F 64% 30.19 in 10.0 mi SSW 15.0 mph - N/A   Clear
8:30 PM 33.8 °F 24.3 °F 23.0 °F 65% 30.19 in 10.0 mi SSW 13.8 mph - N/A   Clear
8:50 PM 33.8 °F 23.9 °F 23.0 °F 65% 30.19 in 10.0 mi SSW 15.0 mph - N/A   Clear
9:10 PM 32.0 °F 22.5 °F 23.0 °F 69% 30.19 in 10.0 mi SSW 12.7 mph - N/A   Clear
9:30 PM 32.0 °F 22.5 °F 23.0 °F 69% 30.19 in 10.0 mi SSW 12.7 mph - N/A   Clear
9:50 PM 33.8 °F 24.8 °F 23.0 °F 65% 30.19 in 10.0 mi SSW 12.7 mph - N/A   Clear
10:10 PM 35.6 °F 27.1 °F 23.0 °F 60% 30.19 in 10.0 mi SSW 12.7 mph - N/A   Clear
10:30 PM 33.8 °F 25.8 °F 23.0 °F 65% 30.19 in 10.0 mi SW 10.4 mph - N/A   Clear
10:50 PM 33.8 °F 26.4 °F 23.0 °F 65% 30.19 in 10.0 mi SW 9.2 mph - N/A   Clear
11:10 PM 32.0 °F 24.2 °F 23.0 °F 69% 30.19 in 10.0 mi SW 9.2 mph - N/A   Clear
11:30 PM 32.0 °F 24.8 °F 23.0 °F 69% 30.19 in 10.0 mi SW 8.1 mph - N/A   Clear
11:50 PM 32.0 °F 22.5 °F 23.0 °F 69% 30.18 in 10.0 mi SW 12.7 mph - N/A   Clear